»·PEaware :: UAL1399 KLAX-KBFL

UAL1399 :: KLAX-KBFL

FLIGHT INFORMATION

Flight Status: Arrived
Operator:
United Airlines
More flights by this operator :: More flights under this callsign
Pilot: David C. (16084)
Aircraft: SAAB 340
(SF34)
More flights by this aircraft type
Origin: KLAX Los Angeles Intl
United States
Destination: KBFL Meadows
United States
More flights between these airports :: More routes between these airports
Route: GMN7 GMN FASTO2
File this flight plan on PilotEdge
Remarks:
Altitude:
(Current/Filed)
12,000ft
Speed:
(Current/Filed)
283kts
Departed: 14-Jan-20 02:15 PM
Arrived: 14-Jan-20 02:47 PM
Distance/Time
Traveled:
95nm/0:31
Distance/Time
To Go:
Arrived

Flight Plot

Page will automatically refresh every two minutes.


Map Options




Map Legend


Flown Route
Filed Route
Departure Airport
Arrival Airport
Navaid (VOR, NDB)
Fix

Horizontal Profiles

Position Reports

Time Latitude Longitude Heading Altitude Ground
Speed
14-Jan-20 13:39 33.941322 -118.397629 175 110ft 0kts
14-Jan-20 13:40 33.941322 -118.397629 175 110ft 0kts
14-Jan-20 13:41 33.941322 -118.397629 175 110ft 0kts
14-Jan-20 13:42 33.941322 -118.397629 175 110ft 0kts
14-Jan-20 13:43 33.941322 -118.397629 175 110ft 0kts
14-Jan-20 13:44 33.941322 -118.397629 175 110ft 0kts
14-Jan-20 13:45 33.941322 -118.397629 175 110ft 0kts
14-Jan-20 13:46 33.941322 -118.397629 175 110ft 0kts
14-Jan-20 13:47 33.941322 -118.397629 175 110ft 0kts
14-Jan-20 13:48 33.941322 -118.397629 175 110ft 0kts
14-Jan-20 13:49 33.941322 -118.397629 175 110ft 0kts
14-Jan-20 13:50 33.941322 -118.397629 175 110ft 0kts
14-Jan-20 13:51 33.941322 -118.397629 175 110ft 0kts
14-Jan-20 13:52 33.941322 -118.397629 175 110ft 0kts
14-Jan-20 13:53 33.941322 -118.397629 175 110ft 0kts
14-Jan-20 13:54 33.941322 -118.397629 175 110ft 0kts
14-Jan-20 13:55 33.941322 -118.397629 175 110ft 0kts
14-Jan-20 13:56 33.941322 -118.397629 175 110ft 0kts
14-Jan-20 13:57 33.941322 -118.397629 175 110ft 0kts
14-Jan-20 13:58 33.941322 -118.397629 175 110ft 0kts
14-Jan-20 13:59 33.941322 -118.397629 175 110ft 0kts
14-Jan-20 14:00 33.941322 -118.397629 175 110ft 0kts
14-Jan-20 14:01 33.941322 -118.397629 175 110ft 0kts
14-Jan-20 14:02 33.941322 -118.397629 175 110ft 0kts
14-Jan-20 14:03 33.941322 -118.397629 175 110ft 0kts
14-Jan-20 14:04 33.940938 -118.398228 195 110ft 8kts
14-Jan-20 14:05 33.939080 -118.396981 85 110ft 11kts
14-Jan-20 14:06 33.939521 -118.392988 83 110ft 12kts
14-Jan-20 14:07 33.939919 -118.388786 82 110ft 12kts
14-Jan-20 14:08 33.940355 -118.384515 82 110ft 12kts
14-Jan-20 14:09 33.940732 -118.380339 104 110ft 5kts
14-Jan-20 14:10 33.940727 -118.380313 103 110ft 0kts
14-Jan-20 14:11 33.940722 -118.380288 103 110ft 0kts
14-Jan-20 14:12 33.940721 -118.380283 104 110ft 0kts
14-Jan-20 14:14 33.940345 -118.379979 171 110ft 8kts
14-Jan-20 14:15 33.938902 -118.389398 263 110ft 108kts
14-Jan-20 14:16 33.934378 -118.439491 264 1613ft 166kts
14-Jan-20 14:17 33.930283 -118.494576 264 4064ft 166kts
14-Jan-20 14:18 33.926974 -118.550411 264 6018ft 169kts
14-Jan-20 14:19 33.930410 -118.605144 317 7764ft 180kts
14-Jan-20 14:20 33.989509 -118.613099 352 7995ft 240kts
14-Jan-20 14:21 34.058769 -118.618154 352 7963ft 255kts
14-Jan-20 14:22 34.130014 -118.623590 352 7955ft 259kts
14-Jan-20 14:23 34.200340 -118.628990 352 8841ft 233kts
14-Jan-20 14:24 34.259615 -118.630811 352 10775ft 197kts
14-Jan-20 14:25 34.311900 -118.635000 337 11963ft 200kts
14-Jan-20 14:26 34.368366 -118.658650 333 11964ft 229kts
14-Jan-20 14:27 34.429140 -118.687245 334 11966ft 238kts
14-Jan-20 14:28 34.491108 -118.715989 334 11965ft 240kts
14-Jan-20 14:29 34.553583 -118.744941 334 11964ft 240kts
14-Jan-20 14:30 34.615736 -118.773763 334 12037ft 239kts
14-Jan-20 14:31 34.677966 -118.802671 334 12037ft 240kts
14-Jan-20 14:32 34.740524 -118.831751 334 12036ft 240kts
14-Jan-20 14:33 34.802858 -118.860520 339 12028ft 242kts
14-Jan-20 14:34 34.871683 -118.861435 354 12036ft 248kts
14-Jan-20 14:34 34.929258 -118.861371 353 12039ft 248kts
14-Jan-20 14:36 35.009000 -118.861371 353 10650ft 233kts
14-Jan-20 14:37 35.069948 -118.861405 355 8620ft 210kts
14-Jan-20 14:37 35.117195 -118.861437 356 6941ft 200kts
14-Jan-20 14:39 35.180971 -118.861444 358 4611ft 195kts
14-Jan-20 14:39 35.225770 -118.861457 359 3055ft 188kts
14-Jan-20 14:40 35.272535 -118.863378 332 2978ft 165kts
14-Jan-20 14:42 35.310891 -118.908281 317 2989ft 163kts
14-Jan-20 14:42 35.337859 -118.940415 316 3014ft 155kts
14-Jan-20 14:43 35.366743 -118.975200 316 2303ft 139kts
14-Jan-20 14:44 35.394768 -119.008983 316 1550ft 143kts
14-Jan-20 14:45 35.422961 -119.043013 315 737ft 142kts
14-Jan-20 14:46 35.439793 -119.063295 332 500ft 14kts
14-Jan-20 14:47 35.440750 -119.062836 54 500ft 4kts
14-Jan-20 14:48 35.438931 -119.060057 135 500ft 13kts
14-Jan-20 14:49 35.437364 -119.056137 119 500ft 14kts
14-Jan-20 14:50 35.437452 -119.055126 105 500ft 0kts
14-Jan-20 14:51 35.437452 -119.055126 105 500ft 0kts
14-Jan-20 14:52 35.437452 -119.055126 105 500ft 0kts
14-Jan-20 14:53 35.437452 -119.055126 105 500ft 0kts
14-Jan-20 14:54 35.437452 -119.055126 105 500ft 0kts
14-Jan-20 14:55 35.437452 -119.055126 105 500ft 0kts
14-Jan-20 14:56 35.437452 -119.055126 105 500ft 0kts

Navigation Log

Ident Type
Flight plan parsing failed, navigation log unavailable